sensor_id;sensor_type;location;lat;lon;timestamp;P1;durP1;ratioP1;P2;durP2;ratioP2
56419;SDS011;42323;52.170;7.538;2023-03-01T00:01:16;7.72;;;5.72;;
56419;SDS011;42323;52.170;7.538;2023-03-01T00:03:47;7.55;;;5.70;;
56419;SDS011;42323;52.170;7.538;2023-03-01T00:06:16;7.25;;;5.07;;
56419;SDS011;42323;52.170;7.538;2023-03-01T00:08:44;8.88;;;5.53;;
56419;SDS011;42323;52.170;7.538;2023-03-01T00:13:46;5.85;;;4.30;;
56419;SDS011;42323;52.170;7.538;2023-03-01T00:16:18;6.43;;;5.15;;
56419;SDS011;42323;52.170;7.538;2023-03-01T00:18:48;8.18;;;5.10;;
56419;SDS011;42323;52.170;7.538;2023-03-01T00:21:17;5.53;;;4.47;;
56419;SDS011;42323;52.170;7.538;2023-03-01T00:23:43;7.07;;;4.85;;
56419;SDS011;42323;52.170;7.538;2023-03-01T00:26:11;7.88;;;5.22;;
56419;SDS011;42323;52.170;7.538;2023-03-01T00:28:42;7.30;;;5.28;;
56419;SDS011;42323;52.170;7.538;2023-03-01T00:31:10;7.72;;;5.65;;
56419;SDS011;42323;52.170;7.538;2023-03-01T00:33:43;6.65;;;4.78;;
56419;SDS011;42323;52.170;7.538;2023-03-01T00:36:10;7.45;;;5.43;;
56419;SDS011;42323;52.170;7.538;2023-03-01T00:38:39;9.38;;;5.72;;
56419;SDS011;42323;52.170;7.538;2023-03-01T00:41:09;9.30;;;5.90;;
56419;SDS011;42323;52.170;7.538;2023-03-01T00:43:37;9.32;;;4.93;;
56419;SDS011;42323;52.170;7.538;2023-03-01T00:46:04;6.43;;;5.10;;
56419;SDS011;42323;52.170;7.538;2023-03-01T00:48:36;9.55;;;5.65;;
56419;SDS011;42323;52.170;7.538;2023-03-01T00:51:13;6.40;;;4.90;;
56419;SDS011;42323;52.170;7.538;2023-03-01T00:53:41;8.95;;;4.97;;
56419;SDS011;42323;52.170;7.538;2023-03-01T00:56:12;7.55;;;5.18;;
56419;SDS011;42323;52.170;7.538;2023-03-01T00:58:40;5.70;;;5.15;;
56419;SDS011;42323;52.170;7.538;2023-03-01T01:01:08;8.32;;;5.20;;
56419;SDS011;42323;52.170;7.538;2023-03-01T01:03:44;9.80;;;5.50;;
56419;SDS011;42323;52.170;7.538;2023-03-01T01:06:19;5.43;;;4.82;;
56419;SDS011;42323;52.170;7.538;2023-03-01T01:08:48;7.68;;;5.85;;
56419;SDS011;42323;52.170;7.538;2023-03-01T01:11:14;6.28;;;4.50;;
56419;SDS011;42323;52.170;7.538;2023-03-01T01:13:43;5.80;;;5.20;;
56419;SDS011;42323;52.170;7.538;2023-03-01T01:16:12;6.82;;;5.30;;
56419;SDS011;42323;52.170;7.538;2023-03-01T01:18:40;8.00;;;5.53;;
56419;SDS011;42323;52.170;7.538;2023-03-01T01:21:08;7.45;;;5.28;;
56419;SDS011;42323;52.170;7.538;2023-03-01T01:23:37;7.30;;;6.22;;
56419;SDS011;42323;52.170;7.538;2023-03-01T01:26:05;7.63;;;5.65;;
56419;SDS011;42323;52.170;7.538;2023-03-01T01:28:33;7.47;;;5.15;;
56419;SDS011;42323;52.170;7.538;2023-03-01T01:31:03;10.38;;;4.95;;
56419;SDS011;42323;52.170;7.538;2023-03-01T01:33:30;5.35;;;4.43;;
56419;SDS011;42323;52.170;7.538;2023-03-01T01:35:57;6.25;;;4.60;;
56419;SDS011;42323;52.170;7.538;2023-03-01T01:38:25;5.47;;;4.65;;
56419;SDS011;42323;52.170;7.538;2023-03-01T01:40:51;6.88;;;5.28;;
56419;SDS011;42323;52.170;7.538;2023-03-01T01:43:32;6.05;;;4.85;;
56419;SDS011;42323;52.170;7.538;2023-03-01T01:46:04;6.03;;;4.70;;
56419;SDS011;42323;52.170;7.538;2023-03-01T01:48:42;5.30;;;4.80;;
56419;SDS011;42323;52.170;7.538;2023-03-01T01:51:15;6.93;;;5.13;;
56419;SDS011;42323;52.170;7.538;2023-03-01T01:53:49;5.28;;;4.72;;
56419;SDS011;42323;52.170;7.538;2023-03-01T01:56:20;9.93;;;5.13;;
56419;SDS011;42323;52.170;7.538;2023-03-01T01:58:48;10.10;;;4.70;;
56419;SDS011;42323;52.170;7.538;2023-03-01T02:01:16;6.18;;;4.82;;
56419;SDS011;42323;52.170;7.538;2023-03-01T02:03:43;8.45;;;6.35;;
56419;SDS011;42323;52.170;7.538;2023-03-01T02:09:06;6.30;;;4.57;;
56419;SDS011;42323;52.170;7.538;2023-03-01T02:11:37;6.13;;;4.82;;
56419;SDS011;42323;52.170;7.538;2023-03-01T02:14:04;6.70;;;4.68;;
56419;SDS011;42323;52.170;7.538;2023-03-01T02:16:31;6.20;;;5.60;;
56419;SDS011;42323;52.170;7.538;2023-03-01T02:18:59;8.27;;;5.00;;
56419;SDS011;42323;52.170;7.538;2023-03-01T02:24:30;6.95;;;5.25;;
56419;SDS011;42323;52.170;7.538;2023-03-01T02:27:06;8.57;;;6.00;;
56419;SDS011;42323;52.170;7.538;2023-03-01T02:29:33;8.15;;;5.30;;
56419;SDS011;42323;52.170;7.538;2023-03-01T02:32:02;7.45;;;5.05;;
56419;SDS011;42323;52.170;7.538;2023-03-01T02:34:31;8.65;;;5.93;;
56419;SDS011;42323;52.170;7.538;2023-03-01T02:37:02;10.13;;;6.63;;
56419;SDS011;42323;52.170;7.538;2023-03-01T02:39:34;8.35;;;5.93;;
56419;SDS011;42323;52.170;7.538;2023-03-01T02:42:11;5.85;;;5.25;;
56419;SDS011;42323;52.170;7.538;2023-03-01T02:44:43;8.45;;;5.45;;
56419;SDS011;42323;52.170;7.538;2023-03-01T02:47:12;8.35;;;5.88;;
56419;SDS011;42323;52.170;7.538;2023-03-01T02:49:41;5.53;;;4.95;;
56419;SDS011;42323;52.170;7.538;2023-03-01T02:57:34;6.65;;;5.50;;
56419;SDS011;42323;52.170;7.538;2023-03-01T03:00:11;8.25;;;6.05;;
56419;SDS011;42323;52.170;7.538;2023-03-01T03:02:47;7.85;;;4.65;;
56419;SDS011;42323;52.170;7.538;2023-03-01T03:05:17;6.90;;;5.28;;
56419;SDS011;42323;52.170;7.538;2023-03-01T03:07:49;6.97;;;5.35;;
56419;SDS011;42323;52.170;7.538;2023-03-01T03:10:28;6.43;;;5.68;;
56419;SDS011;42323;52.170;7.538;2023-03-01T06:42:47;7.75;;;6.95;;
56419;SDS011;42323;52.170;7.538;2023-03-01T06:45:17;6.35;;;5.85;;
56419;SDS011;42323;52.170;7.538;2023-03-01T06:47:45;6.38;;;4.50;;
56419;SDS011;42323;52.170;7.538;2023-03-01T06:50:12;8.15;;;6.18;;
56419;SDS011;42323;52.170;7.538;2023-03-01T06:52:40;4.53;;;4.18;;
56419;SDS011;42323;52.170;7.538;2023-03-01T06:55:08;7.72;;;6.80;;
56419;SDS011;42323;52.170;7.538;2023-03-01T06:57:35;5.65;;;5.15;;
56419;SDS011;42323;52.170;7.538;2023-03-01T07:00:02;4.90;;;4.40;;
56419;SDS011;42323;52.170;7.538;2023-03-01T07:02:30;8.20;;;5.10;;
56419;SDS011;42323;52.170;7.538;2023-03-01T07:04:56;5.63;;;5.00;;
56419;SDS011;42323;52.170;7.538;2023-03-01T07:07:23;7.63;;;4.72;;
56419;SDS011;42323;52.170;7.538;2023-03-01T07:09:50;5.25;;;4.82;;
56419;SDS011;42323;52.170;7.538;2023-03-01T07:12:16;8.57;;;7.63;;
56419;SDS011;42323;52.170;7.538;2023-03-01T07:14:43;6.10;;;5.60;;
56419;SDS011;42323;52.170;7.538;2023-03-01T07:17:10;9.15;;;5.70;;
56419;SDS011;42323;52.170;7.538;2023-03-01T07:19:37;9.30;;;7.40;;
56419;SDS011;42323;52.170;7.538;2023-03-01T07:22:03;8.85;;;5.68;;
56419;SDS011;42323;52.170;7.538;2023-03-01T07:24:30;7.45;;;5.93;;
56419;SDS011;42323;52.170;7.538;2023-03-01T07:26:57;6.78;;;5.18;;
56419;SDS011;42323;52.170;7.538;2023-03-01T07:29:23;8.98;;;6.75;;
56419;SDS011;42323;52.170;7.538;2023-03-01T07:31:50;8.43;;;5.88;;
56419;SDS011;42323;52.170;7.538;2023-03-01T07:34:16;10.73;;;8.43;;
56419;SDS011;42323;52.170;7.538;2023-03-01T07:36:43;11.30;;;8.52;;
56419;SDS011;42323;52.170;7.538;2023-03-01T07:39:11;11.43;;;6.55;;
56419;SDS011;42323;52.170;7.538;2023-03-01T07:41:38;11.40;;;7.95;;
56419;SDS011;42323;52.170;7.538;2023-03-01T07:44:04;13.95;;;8.57;;
56419;SDS011;42323;52.170;7.538;2023-03-01T07:46:31;12.80;;;8.32;;
56419;SDS011;42323;52.170;7.538;2023-03-01T07:48:59;10.00;;;7.43;;
56419;SDS011;42323;52.170;7.538;2023-03-01T07:51:25;7.90;;;6.28;;
56419;SDS011;42323;52.170;7.538;2023-03-01T07:53:52;12.02;;;7.68;;
56419;SDS011;42323;52.170;7.538;2023-03-01T07:56:19;8.43;;;6.55;;
56419;SDS011;42323;52.170;7.538;2023-03-01T07:58:47;12.23;;;7.38;;
56419;SDS011;42323;52.170;7.538;2023-03-01T08:01:17;10.50;;;6.97;;
56419;SDS011;42323;52.170;7.538;2023-03-01T08:03:46;13.60;;;8.65;;
56419;SDS011;42323;52.170;7.538;2023-03-01T08:06:14;8.98;;;6.95;;
56419;SDS011;42323;52.170;7.538;2023-03-01T08:08:42;9.73;;;6.35;;
56419;SDS011;42323;52.170;7.538;2023-03-01T08:11:12;9.48;;;6.65;;
56419;SDS011;42323;52.170;7.538;2023-03-01T08:13:40;12.57;;;6.60;;
56419;SDS011;42323;52.170;7.538;2023-03-01T08:16:08;10.95;;;7.13;;
56419;SDS011;42323;52.170;7.538;2023-03-01T08:18:39;8.07;;;6.03;;
56419;SDS011;42323;52.170;7.538;2023-03-01T08:21:07;15.52;;;7.70;;
56419;SDS011;42323;52.170;7.538;2023-03-01T08:23:35;7.32;;;5.88;;
56419;SDS011;42323;52.170;7.538;2023-03-01T08:26:03;8.35;;;6.45;;
56419;SDS011;42323;52.170;7.538;2023-03-01T08:28:34;9.25;;;6.07;;
56419;SDS011;42323;52.170;7.538;2023-03-01T08:31:01;7.85;;;6.07;;
56419;SDS011;42323;52.170;7.538;2023-03-01T08:33:28;10.38;;;6.45;;
56419;SDS011;42323;52.170;7.538;2023-03-01T08:36:04;15.68;;;5.85;;
56419;SDS011;42323;52.170;7.538;2023-03-01T08:38:33;5.85;;;4.75;;
56419;SDS011;42323;52.170;7.538;2023-03-01T08:41:02;5.60;;;4.90;;
56419;SDS011;42323;52.170;7.538;2023-03-01T08:43:29;8.23;;;5.45;;
56419;SDS011;42323;52.170;7.538;2023-03-01T08:45:56;8.98;;;5.90;;
56419;SDS011;42323;52.170;7.538;2023-03-01T08:48:22;5.80;;;4.97;;
56419;SDS011;42323;52.170;7.538;2023-03-01T08:50:50;7.88;;;5.10;;
56419;SDS011;42323;52.170;7.538;2023-03-01T08:53:16;7.22;;;5.25;;
56419;SDS011;42323;52.170;7.538;2023-03-01T08:55:43;8.40;;;5.03;;
56419;SDS011;42323;52.170;7.538;2023-03-01T08:58:09;5.75;;;4.70;;
56419;SDS011;42323;52.170;7.538;2023-03-01T09:00:36;6.35;;;4.03;;
56419;SDS011;42323;52.170;7.538;2023-03-01T09:03:05;7.35;;;4.57;;
56419;SDS011;42323;52.170;7.538;2023-03-01T09:05:32;11.10;;;4.35;;
56419;SDS011;42323;52.170;7.538;2023-03-01T09:08:00;8.68;;;5.22;;
56419;SDS011;42323;52.170;7.538;2023-03-01T09:10:26;7.65;;;5.10;;
56419;SDS011;42323;52.170;7.538;2023-03-01T09:12:53;8.32;;;5.30;;
56419;SDS011;42323;52.170;7.538;2023-03-01T09:15:19;7.88;;;4.97;;
56419;SDS011;42323;52.170;7.538;2023-03-01T09:17:46;6.03;;;4.45;;
56419;SDS011;42323;52.170;7.538;2023-03-01T09:20:13;7.13;;;5.38;;
56419;SDS011;42323;52.170;7.538;2023-03-01T09:22:39;6.35;;;4.32;;
56419;SDS011;42323;52.170;7.538;2023-03-01T09:25:06;6.32;;;4.50;;
56419;SDS011;42323;52.170;7.538;2023-03-01T09:27:32;6.75;;;4.55;;
56419;SDS011;42323;52.170;7.538;2023-03-01T09:29:59;4.75;;;4.25;;
56419;SDS011;42323;52.170;7.538;2023-03-01T09:32:25;7.72;;;4.55;;
56419;SDS011;42323;52.170;7.538;2023-03-01T09:34:52;7.97;;;4.57;;
56419;SDS011;42323;52.170;7.538;2023-03-01T09:37:30;9.23;;;4.85;;
56419;SDS011;42323;52.170;7.538;2023-03-01T09:39:58;7.13;;;4.50;;
56419;SDS011;42323;52.170;7.538;2023-03-01T09:42:25;10.80;;;5.38;;
56419;SDS011;42323;52.170;7.538;2023-03-01T09:44:58;10.32;;;4.90;;
56419;SDS011;42323;52.170;7.538;2023-03-01T09:47:30;8.32;;;4.88;;
56419;SDS011;42323;52.170;7.538;2023-03-01T09:50:02;9.05;;;4.82;;
56419;SDS011;42323;52.170;7.538;2023-03-01T09:55:11;7.13;;;4.78;;
56419;SDS011;42323;52.170;7.538;2023-03-01T09:57:46;9.05;;;5.43;;
56419;SDS011;42323;52.170;7.538;2023-03-01T10:00:19;9.15;;;5.28;;
56419;SDS011;42323;52.170;7.538;2023-03-01T10:11:19;8.38;;;5.45;;
56419;SDS011;42323;52.170;7.538;2023-03-01T10:19:06;7.20;;;4.93;;
56419;SDS011;42323;52.170;7.538;2023-03-01T10:21:42;8.48;;;5.25;;
56419;SDS011;42323;52.170;7.538;2023-03-01T10:24:15;7.28;;;5.22;;
56419;SDS011;42323;52.170;7.538;2023-03-01T10:26:57;7.72;;;5.10;;
56419;SDS011;42323;52.170;7.538;2023-03-01T10:29:30;8.32;;;5.78;;
56419;SDS011;42323;52.170;7.538;2023-03-01T10:32:03;7.73;;;5.33;;
56419;SDS011;42323;52.170;7.538;2023-03-01T10:34:34;9.10;;;5.70;;
56419;SDS011;42323;52.170;7.538;2023-03-01T10:37:15;12.30;;;5.45;;
56419;SDS011;42323;52.170;7.538;2023-03-01T10:39:58;7.97;;;4.85;;
56419;SDS011;42323;52.170;7.538;2023-03-01T10:42:37;9.93;;;5.35;;
56419;SDS011;42323;52.170;7.538;2023-03-01T10:48:04;6.90;;;4.85;;
56419;SDS011;42323;52.170;7.538;2023-03-01T10:50:38;10.10;;;5.07;;
56419;SDS011;42323;52.170;7.538;2023-03-01T10:53:16;7.22;;;5.15;;
56419;SDS011;42323;52.170;7.538;2023-03-01T10:55:59;7.63;;;5.60;;
56419;SDS011;42323;52.170;7.538;2023-03-01T10:58:38;7.68;;;5.15;;
56419;SDS011;42323;52.170;7.538;2023-03-01T11:21:36;8.95;;;5.47;;
56419;SDS011;42323;52.170;7.538;2023-03-01T11:24:09;6.75;;;4.90;;
56419;SDS011;42323;52.170;7.538;2023-03-01T11:26:39;7.75;;;4.47;;
56419;SDS011;42323;52.170;7.538;2023-03-01T11:29:13;7.50;;;4.75;;
56419;SDS011;42323;52.170;7.538;2023-03-01T11:32:06;5.70;;;4.30;;
56419;SDS011;42323;52.170;7.538;2023-03-01T11:34:38;5.75;;;4.25;;
56419;SDS011;42323;52.170;7.538;2023-03-01T11:37:29;6.30;;;3.63;;
56419;SDS011;42323;52.170;7.538;2023-03-01T11:40:12;6.00;;;3.80;;
56419;SDS011;42323;52.170;7.538;2023-03-01T11:45:18;5.03;;;3.85;;
56419;SDS011;42323;52.170;7.538;2023-03-01T11:51:18;6.20;;;3.67;;
56419;SDS011;42323;52.170;7.538;2023-03-01T11:56:27;4.45;;;3.80;;
56419;SDS011;42323;52.170;7.538;2023-03-01T12:05:18;6.45;;;3.78;;
56419;SDS011;42323;52.170;7.538;2023-03-01T12:21:30;7.00;;;4.20;;
56419;SDS011;42323;52.170;7.538;2023-03-01T12:56:05;3.83;;;3.03;;
56419;SDS011;42323;52.170;7.538;2023-03-01T12:58:46;5.38;;;3.38;;
56419;SDS011;42323;52.170;7.538;2023-03-01T13:04:07;7.32;;;4.25;;
56419;SDS011;42323;52.170;7.538;2023-03-01T13:19:23;4.10;;;3.20;;
56419;SDS011;42323;52.170;7.538;2023-03-01T14:53:18;3.90;;;2.67;;
56419;SDS011;42323;52.170;7.538;2023-03-01T14:55:49;3.10;;;2.10;;
56419;SDS011;42323;52.170;7.538;2023-03-01T15:03:33;2.80;;;1.90;;
56419;SDS011;42323;52.170;7.538;2023-03-01T15:39:00;3.72;;;2.10;;
56419;SDS011;42323;52.170;7.538;2023-03-01T15:41:29;3.85;;;2.40;;
56419;SDS011;42323;52.170;7.538;2023-03-01T15:43:59;3.10;;;2.20;;
56419;SDS011;42323;52.170;7.538;2023-03-01T15:46:28;4.88;;;2.38;;
56419;SDS011;42323;52.170;7.538;2023-03-01T15:49:04;3.70;;;2.40;;
56419;SDS011;42323;52.170;7.538;2023-03-01T15:51:45;3.00;;;2.37;;
56419;SDS011;42323;52.170;7.538;2023-03-01T15:54:18;4.13;;;2.42;;
56419;SDS011;42323;52.170;7.538;2023-03-01T15:56:46;3.95;;;2.45;;
56419;SDS011;42323;52.170;7.538;2023-03-01T15:59:13;5.00;;;2.50;;
56419;SDS011;42323;52.170;7.538;2023-03-01T16:01:40;3.17;;;2.20;;
56419;SDS011;42323;52.170;7.538;2023-03-01T16:04:11;3.40;;;2.30;;
56419;SDS011;42323;52.170;7.538;2023-03-01T16:06:49;3.72;;;2.42;;
56419;SDS011;42323;52.170;7.538;2023-03-01T16:16:44;4.03;;;2.40;;
56419;SDS011;42323;52.170;7.538;2023-03-01T16:19:12;4.65;;;2.63;;
56419;SDS011;42323;52.170;7.538;2023-03-01T16:21:38;4.10;;;2.60;;
56419;SDS011;42323;52.170;7.538;2023-03-01T16:24:05;3.50;;;2.35;;
56419;SDS011;42323;52.170;7.538;2023-03-01T16:26:32;4.45;;;2.60;;
56419;SDS011;42323;52.170;7.538;2023-03-01T16:28:59;3.75;;;2.65;;
56419;SDS011;42323;52.170;7.538;2023-03-01T16:31:25;3.88;;;2.38;;
56419;SDS011;42323;52.170;7.538;2023-03-01T16:33:53;3.65;;;2.45;;
56419;SDS011;42323;52.170;7.538;2023-03-01T16:36:22;4.63;;;2.63;;
56419;SDS011;42323;52.170;7.538;2023-03-01T16:38:52;5.72;;;2.67;;
56419;SDS011;42323;52.170;7.538;2023-03-01T16:41:19;4.15;;;2.97;;
56419;SDS011;42323;52.170;7.538;2023-03-01T16:43:48;3.88;;;2.60;;
56419;SDS011;42323;52.170;7.538;2023-03-01T16:46:21;4.20;;;2.60;;
56419;SDS011;42323;52.170;7.538;2023-03-01T16:48:55;4.03;;;2.70;;
56419;SDS011;42323;52.170;7.538;2023-03-01T16:51:22;7.68;;;3.95;;
56419;SDS011;42323;52.170;7.538;2023-03-01T16:53:49;3.83;;;2.70;;
56419;SDS011;42323;52.170;7.538;2023-03-01T16:56:16;3.95;;;2.72;;
56419;SDS011;42323;52.170;7.538;2023-03-01T16:58:44;4.25;;;2.47;;
56419;SDS011;42323;52.170;7.538;2023-03-01T17:01:13;4.07;;;2.30;;
56419;SDS011;42323;52.170;7.538;2023-03-01T17:03:42;3.35;;;1.98;;
56419;SDS011;42323;52.170;7.538;2023-03-01T17:06:11;3.67;;;2.38;;
56419;SDS011;42323;52.170;7.538;2023-03-01T17:08:43;6.80;;;3.15;;
56419;SDS011;42323;52.170;7.538;2023-03-01T17:11:13;3.60;;;2.67;;
56419;SDS011;42323;52.170;7.538;2023-03-01T17:13:42;3.28;;;2.63;;
56419;SDS011;42323;52.170;7.538;2023-03-01T17:16:10;4.65;;;3.08;;
56419;SDS011;42323;52.170;7.538;2023-03-01T17:18:38;5.82;;;3.47;;
56419;SDS011;42323;52.170;7.538;2023-03-01T17:21:05;7.15;;;4.10;;
56419;SDS011;42323;52.170;7.538;2023-03-01T17:23:33;5.47;;;3.55;;
56419;SDS011;42323;52.170;7.538;2023-03-01T17:26:01;9.60;;;4.03;;
56419;SDS011;42323;52.170;7.538;2023-03-01T17:28:28;4.63;;;3.42;;
56419;SDS011;42323;52.170;7.538;2023-03-01T17:30:57;4.38;;;3.05;;
56419;SDS011;42323;52.170;7.538;2023-03-01T17:33:25;5.78;;;3.30;;
56419;SDS011;42323;52.170;7.538;2023-03-01T17:35:52;10.45;;;3.65;;
56419;SDS011;42323;52.170;7.538;2023-03-01T17:38:18;5.40;;;3.33;;
56419;SDS011;42323;52.170;7.538;2023-03-01T17:40:45;4.65;;;3.40;;
56419;SDS011;42323;52.170;7.538;2023-03-01T17:43:12;4.45;;;3.00;;
56419;SDS011;42323;52.170;7.538;2023-03-01T17:45:40;4.95;;;3.20;;
56419;SDS011;42323;52.170;7.538;2023-03-01T17:48:09;5.80;;;3.42;;
56419;SDS011;42323;52.170;7.538;2023-03-01T17:50:37;7.15;;;3.58;;
56419;SDS011;42323;52.170;7.538;2023-03-01T17:53:06;4.70;;;3.08;;
56419;SDS011;42323;52.170;7.538;2023-03-01T17:55:35;5.82;;;3.70;;
56419;SDS011;42323;52.170;7.538;2023-03-01T17:58:03;6.60;;;3.80;;
56419;SDS011;42323;52.170;7.538;2023-03-01T18:00:30;5.05;;;3.97;;
56419;SDS011;42323;52.170;7.538;2023-03-01T18:02:58;6.40;;;4.32;;
56419;SDS011;42323;52.170;7.538;2023-03-01T18:05:25;6.88;;;4.53;;
56419;SDS011;42323;52.170;7.538;2023-03-01T18:07:52;5.40;;;4.30;;
56419;SDS011;42323;52.170;7.538;2023-03-01T18:10:19;6.07;;;3.85;;
56419;SDS011;42323;52.170;7.538;2023-03-01T18:12:46;5.95;;;3.90;;
56419;SDS011;42323;52.170;7.538;2023-03-01T18:15:12;8.93;;;4.82;;
56419;SDS011;42323;52.170;7.538;2023-03-01T18:17:39;6.78;;;4.40;;
56419;SDS011;42323;52.170;7.538;2023-03-01T18:20:06;4.72;;;3.42;;
56419;SDS011;42323;52.170;7.538;2023-03-01T18:22:33;6.22;;;3.80;;
56419;SDS011;42323;52.170;7.538;2023-03-01T18:24:59;5.05;;;3.33;;
56419;SDS011;42323;52.170;7.538;2023-03-01T18:27:25;6.55;;;3.97;;
56419;SDS011;42323;52.170;7.538;2023-03-01T18:29:52;9.18;;;4.10;;
56419;SDS011;42323;52.170;7.538;2023-03-01T18:32:19;5.20;;;4.00;;
56419;SDS011;42323;52.170;7.538;2023-03-01T18:34:45;8.75;;;4.40;;
56419;SDS011;42323;52.170;7.538;2023-03-01T18:37:13;8.65;;;4.60;;
56419;SDS011;42323;52.170;7.538;2023-03-01T18:39:40;5.35;;;4.05;;
56419;SDS011;42323;52.170;7.538;2023-03-01T18:42:07;6.47;;;4.00;;
56419;SDS011;42323;52.170;7.538;2023-03-01T18:44:33;6.78;;;4.45;;
56419;SDS011;42323;52.170;7.538;2023-03-01T18:47:01;6.18;;;3.95;;
56419;SDS011;42323;52.170;7.538;2023-03-01T18:49:27;6.80;;;4.53;;
56419;SDS011;42323;52.170;7.538;2023-03-01T18:51:54;8.18;;;4.47;;
56419;SDS011;42323;52.170;7.538;2023-03-01T18:54:21;6.88;;;4.70;;
56419;SDS011;42323;52.170;7.538;2023-03-01T18:56:48;10.27;;;5.28;;
56419;SDS011;42323;52.170;7.538;2023-03-01T18:59:14;8.82;;;4.70;;
56419;SDS011;42323;52.170;7.538;2023-03-01T19:01:41;11.02;;;5.47;;
56419;SDS011;42323;52.170;7.538;2023-03-01T19:04:09;11.02;;;6.80;;
56419;SDS011;42323;52.170;7.538;2023-03-01T19:06:36;11.15;;;7.97;;
56419;SDS011;42323;52.170;7.538;2023-03-01T19:09:04;14.00;;;8.48;;
56419;SDS011;42323;52.170;7.538;2023-03-01T19:11:32;15.98;;;9.25;;
56419;SDS011;42323;52.170;7.538;2023-03-01T19:14:01;12.10;;;7.65;;
56419;SDS011;42323;52.170;7.538;2023-03-01T19:16:29;11.80;;;8.50;;
56419;SDS011;42323;52.170;7.538;2023-03-01T19:19:01;13.57;;;8.55;;
56419;SDS011;42323;52.170;7.538;2023-03-01T19:21:29;15.95;;;9.45;;
56419;SDS011;42323;52.170;7.538;2023-03-01T19:23:58;22.42;;;10.02;;
56419;SDS011;42323;52.170;7.538;2023-03-01T19:26:27;14.50;;;9.38;;
56419;SDS011;42323;52.170;7.538;2023-03-01T19:29:05;18.08;;;9.15;;
56419;SDS011;42323;52.170;7.538;2023-03-01T19:31:31;14.63;;;8.75;;
56419;SDS011;42323;52.170;7.538;2023-03-01T19:33:58;15.73;;;9.52;;
56419;SDS011;42323;52.170;7.538;2023-03-01T19:36:41;17.55;;;9.55;;
56419;SDS011;42323;52.170;7.538;2023-03-01T19:39:09;17.55;;;10.30;;
56419;SDS011;42323;52.170;7.538;2023-03-01T19:41:38;20.88;;;9.90;;
56419;SDS011;42323;52.170;7.538;2023-03-01T19:44:05;12.65;;;9.00;;
56419;SDS011;42323;52.170;7.538;2023-03-01T19:46:33;16.38;;;9.02;;
56419;SDS011;42323;52.170;7.538;2023-03-01T19:49:03;12.73;;;7.75;;
56419;SDS011;42323;52.170;7.538;2023-03-01T19:51:31;14.93;;;8.13;;
56419;SDS011;42323;52.170;7.538;2023-03-01T19:54:01;11.85;;;6.93;;
56419;SDS011;42323;52.170;7.538;2023-03-01T19:56:29;12.93;;;7.22;;
56419;SDS011;42323;52.170;7.538;2023-03-01T19:58:56;9.85;;;6.70;;
56419;SDS011;42323;52.170;7.538;2023-03-01T20:01:26;10.07;;;6.10;;
56419;SDS011;42323;52.170;7.538;2023-03-01T20:03:58;9.10;;;6.57;;
56419;SDS011;42323;52.170;7.538;2023-03-01T20:06:24;6.93;;;5.68;;
56419;SDS011;42323;52.170;7.538;2023-03-01T20:08:51;6.93;;;4.82;;
56419;SDS011;42323;52.170;7.538;2023-03-01T20:11:18;8.65;;;4.20;;
56419;SDS011;42323;52.170;7.538;2023-03-01T20:13:45;7.18;;;4.50;;
56419;SDS011;42323;52.170;7.538;2023-03-01T20:16:14;5.82;;;4.38;;
56419;SDS011;42323;52.170;7.538;2023-03-01T20:18:42;5.70;;;4.20;;
56419;SDS011;42323;52.170;7.538;2023-03-01T20:21:09;7.55;;;4.32;;
56419;SDS011;42323;52.170;7.538;2023-03-01T20:23:48;4.75;;;3.75;;
56419;SDS011;42323;52.170;7.538;2023-03-01T20:26:15;6.45;;;4.03;;
56419;SDS011;42323;52.170;7.538;2023-03-01T20:28:45;6.65;;;4.60;;
56419;SDS011;42323;52.170;7.538;2023-03-01T20:31:14;7.03;;;4.60;;
56419;SDS011;42323;52.170;7.538;2023-03-01T20:33:41;6.22;;;4.38;;
56419;SDS011;42323;52.170;7.538;2023-03-01T20:36:08;6.80;;;4.43;;
56419;SDS011;42323;52.170;7.538;2023-03-01T20:38:35;9.43;;;4.60;;
56419;SDS011;42323;52.170;7.538;2023-03-01T20:41:10;5.93;;;4.53;;
56419;SDS011;42323;52.170;7.538;2023-03-01T20:43:38;6.95;;;4.95;;
56419;SDS011;42323;52.170;7.538;2023-03-01T20:46:12;12.07;;;6.85;;
56419;SDS011;42323;52.170;7.538;2023-03-01T20:48:40;13.20;;;6.22;;
56419;SDS011;42323;52.170;7.538;2023-03-01T20:51:08;9.23;;;5.43;;
56419;SDS011;42323;52.170;7.538;2023-03-01T20:53:36;8.13;;;5.18;;
56419;SDS011;42323;52.170;7.538;2023-03-01T20:56:03;7.65;;;4.57;;
56419;SDS011;42323;52.170;7.538;2023-03-01T20:58:32;8.38;;;4.57;;
56419;SDS011;42323;52.170;7.538;2023-03-01T21:01:00;8.05;;;5.20;;
56419;SDS011;42323;52.170;7.538;2023-03-01T21:03:27;8.20;;;4.57;;
56419;SDS011;42323;52.170;7.538;2023-03-01T21:05:54;7.32;;;5.00;;
56419;SDS011;42323;52.170;7.538;2023-03-01T21:08:22;6.00;;;5.00;;
56419;SDS011;42323;52.170;7.538;2023-03-01T21:10:52;7.57;;;4.97;;
56419;SDS011;42323;52.170;7.538;2023-03-01T21:13:20;5.15;;;4.05;;
56419;SDS011;42323;52.170;7.538;2023-03-01T21:15:57;11.20;;;5.00;;
56419;SDS011;42323;52.170;7.538;2023-03-01T21:18:26;7.38;;;4.00;;
56419;SDS011;42323;52.170;7.538;2023-03-01T21:20:57;5.13;;;3.80;;
56419;SDS011;42323;52.170;7.538;2023-03-01T21:23:29;6.30;;;4.72;;
56419;SDS011;42323;52.170;7.538;2023-03-01T21:28:32;5.78;;;3.72;;
56419;SDS011;42323;52.170;7.538;2023-03-01T21:31:03;5.70;;;3.70;;
56419;SDS011;42323;52.170;7.538;2023-03-01T21:33:44;5.00;;;3.88;;
56419;SDS011;42323;52.170;7.538;2023-03-01T21:36:12;8.10;;;5.10;;
56419;SDS011;42323;52.170;7.538;2023-03-01T21:38:40;10.02;;;5.50;;
56419;SDS011;42323;52.170;7.538;2023-03-01T21:41:09;7.63;;;5.07;;
56419;SDS011;42323;52.170;7.538;2023-03-01T21:43:43;10.00;;;6.00;;
56419;SDS011;42323;52.170;7.538;2023-03-01T21:46:15;6.90;;;5.20;;
56419;SDS011;42323;52.170;7.538;2023-03-01T21:48:43;5.25;;;4.75;;
56419;SDS011;42323;52.170;7.538;2023-03-01T21:51:11;8.30;;;5.05;;
56419;SDS011;42323;52.170;7.538;2023-03-01T21:53:40;8.70;;;5.78;;
56419;SDS011;42323;52.170;7.538;2023-03-01T21:56:07;11.55;;;5.47;;
56419;SDS011;42323;52.170;7.538;2023-03-01T21:58:35;7.53;;;4.95;;
56419;SDS011;42323;52.170;7.538;2023-03-01T22:01:08;7.10;;;5.10;;
56419;SDS011;42323;52.170;7.538;2023-03-01T22:03:57;10.52;;;5.72;;
56419;SDS011;42323;52.170;7.538;2023-03-01T22:06:44;7.30;;;4.90;;
56419;SDS011;42323;52.170;7.538;2023-03-01T22:09:16;9.15;;;5.68;;
56419;SDS011;42323;52.170;7.538;2023-03-01T22:11:46;8.30;;;4.85;;
56419;SDS011;42323;52.170;7.538;2023-03-01T22:14:15;9.05;;;5.55;;
56419;SDS011;42323;52.170;7.538;2023-03-01T22:16:45;9.20;;;5.93;;
56419;SDS011;42323;52.170;7.538;2023-03-01T22:19:14;11.85;;;6.47;;
56419;SDS011;42323;52.170;7.538;2023-03-01T22:21:42;10.27;;;6.68;;
56419;SDS011;42323;52.170;7.538;2023-03-01T22:24:10;9.93;;;6.93;;
56419;SDS011;42323;52.170;7.538;2023-03-01T22:26:39;9.27;;;6.18;;
56419;SDS011;42323;52.170;7.538;2023-03-01T22:29:10;9.20;;;6.80;;
56419;SDS011;42323;52.170;7.538;2023-03-01T22:31:39;10.10;;;6.57;;
56419;SDS011;42323;52.170;7.538;2023-03-01T22:34:05;10.20;;;5.70;;
56419;SDS011;42323;52.170;7.538;2023-03-01T22:36:32;10.48;;;6.10;;
56419;SDS011;42323;52.170;7.538;2023-03-01T22:38:59;9.57;;;6.35;;
56419;SDS011;42323;52.170;7.538;2023-03-01T22:41:31;9.02;;;5.70;;
56419;SDS011;42323;52.170;7.538;2023-03-01T22:43:59;9.70;;;6.10;;
56419;SDS011;42323;52.170;7.538;2023-03-01T22:46:26;7.18;;;4.78;;
56419;SDS011;42323;52.170;7.538;2023-03-01T22:48:53;7.72;;;4.80;;
56419;SDS011;42323;52.170;7.538;2023-03-01T22:51:25;8.77;;;5.13;;
56419;SDS011;42323;52.170;7.538;2023-03-01T22:53:54;8.57;;;5.57;;
56419;SDS011;42323;52.170;7.538;2023-03-01T22:56:22;4.68;;;4.18;;
56419;SDS011;42323;52.170;7.538;2023-03-01T22:58:51;7.25;;;4.90;;